createdAt,value
2017-09-21T00:00:17.812Z,12.70
2017-09-21T00:02:45.480Z,12.07
2017-09-21T00:05:13.113Z,12.70
2017-09-21T00:07:40.737Z,13.18
2017-09-21T00:10:08.316Z,12.75
2017-09-21T00:12:35.952Z,14.27
2017-09-21T00:15:03.631Z,14.35
2017-09-21T00:17:31.286Z,13.20
2017-09-21T00:19:58.950Z,13.80
2017-09-21T00:22:26.564Z,12.55
2017-09-21T00:24:54.186Z,12.90
2017-09-21T00:27:21.802Z,12.23
2017-09-21T00:29:49.453Z,13.02
2017-09-21T00:32:17.056Z,12.35
2017-09-21T00:34:44.677Z,13.82
2017-09-21T00:37:12.630Z,13.02
2017-09-21T00:39:40.254Z,11.40
2017-09-21T00:42:08.330Z,11.65
2017-09-21T00:44:36.232Z,12.45
2017-09-21T00:47:03.819Z,11.07
2017-09-21T00:49:31.445Z,11.43
2017-09-21T00:51:59.073Z,12.80
2017-09-21T00:54:26.660Z,11.73
2017-09-21T00:56:54.486Z,13.70
2017-09-21T00:59:22.177Z,12.95
2017-09-21T01:01:49.759Z,13.48
2017-09-21T01:04:17.344Z,12.95
2017-09-21T01:06:44.942Z,14.15
2017-09-21T01:09:13.296Z,15.23
2017-09-21T01:11:40.918Z,16.10
2017-09-21T01:14:08.563Z,14.77
2017-09-21T01:16:36.208Z,13.90
2017-09-21T01:19:03.886Z,13.77
2017-09-21T01:21:31.487Z,14.77
2017-09-21T01:23:59.110Z,17.05
2017-09-21T01:26:26.775Z,18.12
2017-09-21T01:28:54.429Z,14.90
2017-09-21T01:31:22.110Z,18.05
2017-09-21T01:33:49.761Z,18.00
2017-09-21T01:36:17.519Z,19.33
2017-09-21T01:38:45.171Z,21.42
2017-09-21T01:41:12.818Z,24.17
2017-09-21T01:43:40.482Z,24.45
2017-09-21T01:46:08.878Z,19.05
2017-09-21T01:48:37.932Z,14.93
2017-09-21T01:51:05.610Z,15.93
2017-09-21T01:53:33.271Z,16.58
2017-09-21T01:56:00.942Z,15.75
2017-09-21T01:58:28.618Z,17.33
2017-09-21T02:00:57.077Z,17.30
2017-09-21T02:03:26.351Z,17.80
2017-09-21T02:05:54.018Z,16.35
2017-09-21T02:08:21.708Z,18.15
2017-09-21T02:10:49.328Z,16.67
2017-09-21T02:13:16.968Z,24.85
2017-09-21T02:15:44.560Z,28.15
2017-09-21T02:18:12.147Z,29.23
2017-09-21T02:20:39.761Z,23.10
2017-09-21T02:23:10.007Z,19.20
2017-09-21T02:25:37.632Z,16.23
2017-09-21T02:28:05.212Z,17.45
2017-09-21T02:30:32.799Z,14.87
2017-09-21T02:33:00.379Z,15.38
2017-09-21T02:35:27.999Z,19.42
2017-09-21T02:37:55.701Z,16.60
2017-09-21T02:40:23.324Z,17.05
2017-09-21T02:42:51.717Z,16.05
2017-09-21T02:45:19.463Z,18.52
2017-09-21T02:47:47.123Z,16.55
2017-09-21T02:50:14.762Z,17.70
2017-09-21T02:52:42.411Z,17.20
2017-09-21T02:55:10.037Z,18.85
2017-09-21T02:57:37.649Z,19.60
2017-09-21T03:00:05.245Z,20.20
2017-09-21T03:02:32.879Z,20.20
2017-09-21T03:05:00.637Z,20.42
2017-09-21T03:07:28.269Z,16.58
2017-09-21T03:09:55.878Z,16.65
2017-09-21T03:12:23.534Z,20.17
2017-09-21T03:14:51.145Z,19.55
2017-09-21T03:17:18.767Z,19.50
2017-09-21T03:19:46.422Z,23.60
2017-09-21T03:22:14.039Z,19.73
2017-09-21T03:24:41.662Z,18.40
2017-09-21T03:27:09.288Z,18.27
2017-09-21T03:29:36.933Z,18.08
2017-09-21T03:32:05.277Z,22.65
2017-09-21T03:34:32.857Z,20.50
2017-09-21T03:37:00.480Z,21.62
2017-09-21T03:39:28.058Z,19.80
2017-09-21T03:41:55.783Z,17.45
2017-09-21T03:44:23.393Z,17.42
2017-09-21T03:46:50.980Z,17.33
2017-09-21T03:49:18.609Z,16.50
2017-09-21T03:51:46.230Z,16.33
2017-09-21T03:54:13.902Z,18.73
2017-09-21T03:56:41.478Z,19.92
2017-09-21T03:59:09.093Z,23.05
2017-09-21T04:01:37.443Z,28.48
2017-09-21T04:04:05.030Z,24.20
2017-09-21T04:06:32.624Z,24.80
2017-09-21T04:09:00.256Z,24.83
2017-09-21T04:11:27.841Z,23.77
2017-09-21T04:13:56.297Z,23.65
2017-09-21T04:16:23.923Z,25.00
2017-09-21T04:18:51.581Z,26.67
2017-09-21T04:21:19.228Z,22.67
2017-09-21T04:23:46.838Z,23.15
2017-09-21T04:26:14.428Z,23.75
2017-09-21T04:28:42.090Z,25.58
2017-09-21T04:31:09.698Z,26.12
2017-09-21T04:33:37.390Z,29.50
2017-09-21T04:36:05.004Z,29.73
2017-09-21T04:38:32.627Z,33.97
2017-09-21T04:41:00.246Z,30.92
2017-09-21T04:43:27.854Z,30.10
2017-09-21T04:45:55.493Z,30.85
2017-09-21T04:48:23.107Z,27.17
2017-09-21T04:50:50.746Z,25.73
2017-09-21T04:53:18.364Z,27.77
2017-09-21T04:55:46.753Z,25.92
2017-09-21T04:58:15.223Z,23.45
2017-09-21T05:00:42.827Z,26.85
2017-09-21T05:03:10.473Z,25.65
2017-09-21T05:05:38.114Z,26.58
2017-09-21T05:08:06.533Z,30.60
2017-09-21T05:10:35.315Z,28.23
2017-09-21T05:13:03.018Z,27.58
2017-09-21T05:15:30.655Z,30.52
2017-09-21T05:17:58.247Z,27.55
2017-09-21T05:20:25.893Z,25.00
2017-09-21T05:22:53.481Z,26.42
2017-09-21T05:25:21.910Z,26.27
2017-09-21T05:27:49.551Z,24.42
2017-09-21T05:30:20.406Z,24.60
2017-09-21T05:32:48.070Z,24.35
2017-09-21T05:35:15.785Z,23.12
2017-09-21T05:37:43.422Z,23.48
2017-09-21T05:40:11.058Z,22.77
2017-09-21T05:42:38.684Z,23.75
2017-09-21T05:45:06.272Z,23.90
2017-09-21T05:47:34.777Z,23.00
2017-09-21T05:50:02.392Z,23.92
2017-09-21T05:52:30.033Z,27.70
2017-09-21T05:54:57.646Z,26.02
2017-09-21T05:57:25.339Z,28.80
2017-09-21T05:59:52.914Z,28.67
2017-09-21T06:02:20.574Z,27.40
2017-09-21T06:04:48.287Z,28.50
2017-09-21T06:07:15.951Z,27.70
2017-09-21T06:09:43.664Z,27.02
2017-09-21T06:12:11.362Z,26.15
2017-09-21T06:14:38.997Z,26.17
2017-09-21T06:17:06.639Z,26.35
2017-09-21T06:19:34.248Z,25.12
2017-09-21T06:22:02.779Z,25.55
2017-09-21T06:24:30.433Z,25.15
2017-09-21T06:26:58.110Z,24.80
2017-09-21T06:29:25.792Z,26.48
2017-09-21T06:31:54.179Z,26.52
2017-09-21T06:34:21.822Z,24.23
2017-09-21T06:36:50.363Z,22.92
2017-09-21T06:39:18.018Z,22.25
2017-09-21T06:41:46.807Z,23.77
2017-09-21T06:44:14.507Z,21.37
2017-09-21T06:46:42.251Z,21.58
2017-09-21T06:49:09.958Z,20.17
2017-09-21T06:51:37.621Z,18.58
2017-09-21T06:54:05.352Z,19.77
2017-09-21T06:56:33.023Z,18.83
2017-09-21T06:59:01.423Z,18.30
2017-09-21T07:01:29.226Z,16.77
2017-09-21T07:03:57.102Z,18.40
2017-09-21T07:06:25.474Z,17.77
2017-09-21T07:08:54.251Z,16.87
2017-09-21T07:11:22.225Z,18.70
2017-09-21T07:13:49.918Z,19.30
2017-09-21T07:16:17.594Z,20.10
2017-09-21T07:18:46.148Z,20.90
2017-09-21T07:21:13.782Z,21.10
2017-09-21T07:23:41.482Z,21.83
2017-09-21T07:26:09.143Z,21.90
2017-09-21T07:28:36.776Z,23.02
2017-09-21T07:31:04.541Z,22.50
2017-09-21T07:33:32.423Z,22.75
2017-09-21T07:36:00.350Z,21.73
2017-09-21T07:38:28.544Z,20.35
2017-09-21T07:40:56.336Z,19.95
2017-09-21T07:43:23.998Z,21.87
2017-09-21T07:45:52.088Z,20.37
2017-09-21T07:48:19.795Z,21.52
2017-09-21T07:50:47.569Z,22.10
2017-09-21T07:53:15.222Z,20.95
2017-09-21T07:55:42.891Z,21.83
2017-09-21T07:58:10.574Z,23.70
2017-09-21T08:00:38.315Z,23.85
2017-09-21T08:03:06.021Z,24.10
2017-09-21T08:05:33.916Z,25.17
2017-09-21T08:08:01.562Z,22.65
2017-09-21T08:10:29.426Z,24.20
2017-09-21T08:12:57.072Z,25.77
2017-09-21T08:15:24.721Z,25.33
2017-09-21T08:17:52.559Z,25.70
2017-09-21T08:20:20.926Z,24.60
2017-09-21T08:22:48.807Z,24.75
2017-09-21T08:25:17.218Z,27.48
2017-09-21T08:27:44.814Z,24.25
2017-09-21T08:30:12.459Z,24.25
2017-09-21T08:32:40.082Z,24.40
2017-09-21T08:35:07.742Z,23.85
2017-09-21T08:37:35.358Z,23.85
2017-09-21T08:40:03.069Z,24.15
2017-09-21T08:42:30.682Z,22.73
2017-09-21T08:44:58.315Z,22.02
2017-09-21T08:47:25.917Z,22.48
2017-09-21T08:49:53.600Z,22.42
2017-09-21T08:52:21.272Z,20.52
2017-09-21T08:54:48.926Z,22.00
2017-09-21T08:57:16.586Z,20.30
2017-09-21T08:59:45.012Z,21.15
2017-09-21T09:02:12.654Z,20.15
2017-09-21T09:04:40.409Z,17.73
2017-09-21T09:07:08.115Z,16.77
2017-09-21T09:09:35.835Z,16.80
2017-09-21T09:12:03.523Z,17.40
2017-09-21T09:14:31.290Z,17.20
2017-09-21T09:16:59.612Z,17.33
2017-09-21T09:19:27.393Z,17.23
2017-09-21T09:21:56.213Z,15.65
2017-09-21T09:24:23.879Z,15.15
2017-09-21T09:26:51.496Z,16.30
2017-09-21T09:29:19.215Z,16.62
2017-09-21T09:31:46.859Z,16.90
2017-09-21T09:34:14.493Z,18.62
2017-09-21T09:36:42.161Z,16.27
2017-09-21T09:39:09.821Z,17.52
2017-09-21T09:41:37.566Z,16.77
2017-09-21T09:44:05.250Z,16.95
2017-09-21T09:46:33.653Z,14.82
2017-09-21T09:49:01.352Z,13.95
2017-09-21T09:51:29.035Z,14.87
2017-09-21T09:53:57.530Z,15.15
2017-09-21T09:56:25.204Z,18.08
2017-09-21T09:58:52.915Z,17.98
2017-09-21T10:01:20.646Z,17.02
2017-09-21T10:03:48.291Z,17.77
2017-09-21T10:06:15.915Z,15.95
2017-09-21T10:08:43.731Z,15.98
2017-09-21T10:11:25.765Z,17.95
2017-09-21T10:13:55.575Z,16.55
2017-09-21T10:16:23.248Z,16.90
2017-09-21T10:18:50.994Z,16.27
2017-09-21T10:21:18.681Z,19.00
2017-09-21T10:23:46.339Z,18.40
2017-09-21T10:26:14.052Z,17.37
2017-09-21T10:28:41.748Z,16.25
2017-09-21T10:31:10.338Z,14.63
2017-09-21T10:33:38.029Z,15.45
2017-09-21T10:36:05.792Z,16.27
2017-09-21T10:38:33.529Z,16.27
2017-09-21T10:41:01.194Z,13.55
2017-09-21T10:43:28.789Z,12.93
2017-09-21T10:45:56.419Z,12.75
2017-09-21T10:48:24.127Z,13.50
2017-09-21T10:50:51.879Z,13.23
2017-09-21T10:53:20.274Z,12.85
2017-09-21T10:55:48.020Z,12.68
2017-09-21T10:58:15.663Z,12.13
2017-09-21T11:00:43.341Z,12.13
2017-09-21T11:03:10.986Z,11.93
2017-09-21T11:05:38.699Z,13.00
2017-09-21T11:08:06.349Z,12.30
2017-09-21T11:10:34.141Z,13.43
2017-09-21T11:13:01.918Z,13.70
2017-09-21T11:15:29.634Z,12.57
2017-09-21T11:17:57.364Z,13.00
2017-09-21T11:20:25.011Z,13.32
2017-09-21T11:22:53.687Z,13.85
2017-09-21T11:25:22.446Z,12.30
2017-09-21T11:27:50.376Z,10.95
2017-09-21T11:30:18.036Z,10.15
2017-09-21T11:32:45.835Z,10.60
2017-09-21T11:35:13.557Z,9.07
2017-09-21T11:37:41.223Z,8.95
2017-09-21T11:40:08.914Z,8.40
2017-09-21T11:42:37.282Z,8.50
2017-09-21T11:45:04.953Z,7.05
2017-09-21T11:47:32.613Z,6.68
2017-09-21T11:50:02.827Z,8.40
2017-09-21T11:52:30.964Z,7.60
2017-09-21T11:54:58.561Z,7.30
2017-09-21T11:57:26.198Z,6.87
2017-09-21T11:59:54.300Z,6.97
2017-09-21T12:02:22.053Z,7.80
2017-09-21T12:04:50.943Z,8.57
2017-09-21T12:07:19.358Z,7.28
2017-09-21T12:09:47.087Z,7.72
2017-09-21T12:12:14.824Z,7.25
2017-09-21T12:14:43.249Z,7.25
2017-09-21T12:17:11.678Z,6.65
2017-09-21T12:19:39.614Z,6.78
2017-09-21T12:22:08.070Z,6.57
2017-09-21T12:24:36.175Z,7.15
2017-09-21T12:27:04.803Z,6.80
2017-09-21T12:29:33.144Z,6.40
2017-09-21T12:32:02.190Z,6.95
2017-09-21T12:34:30.192Z,6.68
2017-09-21T12:36:58.188Z,6.80
2017-09-21T12:39:26.210Z,5.65
2017-09-21T12:41:54.192Z,5.45
2017-09-21T12:44:22.549Z,5.22
2017-09-21T12:46:53.782Z,6.90
2017-09-21T12:49:22.472Z,4.68
2017-09-21T12:51:51.531Z,5.03
2017-09-21T12:54:20.172Z,4.45
2017-09-21T12:56:48.165Z,4.50
2017-09-21T12:59:16.298Z,5.20
2017-09-21T13:01:44.752Z,5.97
2017-09-21T13:04:13.098Z,6.43
2017-09-21T13:06:40.932Z,7.25
2017-09-21T13:09:09.280Z,6.35
2017-09-21T13:11:42.655Z,7.05
2017-09-21T13:14:12.037Z,6.65
2017-09-21T13:16:40.569Z,7.70
2017-09-21T13:19:11.571Z,7.87
2017-09-21T13:21:40.567Z,7.35
2017-09-21T13:24:19.174Z,8.80
2017-09-21T13:29:52.996Z,10.18
2017-09-21T13:32:40.211Z,8.07
2017-09-21T13:35:23.505Z,9.60
2017-09-21T13:40:49.829Z,8.80
2017-09-21T13:43:24.535Z,8.57
2017-09-21T13:46:03.551Z,8.80
2017-09-21T13:48:44.688Z,10.63
2017-09-21T13:51:13.840Z,8.35
2017-09-21T13:53:41.895Z,7.97
2017-09-21T13:56:09.709Z,6.82
2017-09-21T13:58:38.041Z,6.72
2017-09-21T14:01:06.677Z,6.65
2017-09-21T14:03:35.639Z,6.03
2017-09-21T14:06:03.840Z,7.12
2017-09-21T14:08:31.677Z,6.37
2017-09-21T14:10:59.541Z,6.62
2017-09-21T14:13:27.237Z,7.15
2017-09-21T14:15:54.966Z,6.37
2017-09-21T14:18:22.638Z,6.93
2017-09-21T14:20:50.452Z,6.65
2017-09-21T14:23:18.640Z,5.05
2017-09-21T14:25:46.280Z,5.97
2017-09-21T14:28:13.913Z,5.82
2017-09-21T14:30:41.553Z,6.03
2017-09-21T14:33:09.192Z,6.47
2017-09-21T14:35:36.816Z,5.90
2017-09-21T14:38:05.219Z,5.78
2017-09-21T14:40:32.880Z,5.15
2017-09-21T14:43:00.556Z,5.05
2017-09-21T14:45:28.221Z,5.47
2017-09-21T14:47:55.869Z,4.95
2017-09-21T15:04:51.526Z,7.47
2017-09-21T15:07:19.155Z,5.78
2017-09-21T15:09:46.791Z,5.32
2017-09-21T15:12:14.443Z,5.53
2017-09-21T15:14:42.122Z,5.30
2017-09-21T15:17:09.784Z,5.78
2017-09-21T15:19:37.406Z,7.35
2017-09-21T15:22:05.079Z,5.70
2017-09-21T15:24:32.780Z,5.87
2017-09-21T15:27:00.439Z,6.05
2017-09-21T15:29:28.063Z,6.50
2017-09-21T15:31:55.691Z,7.12
2017-09-21T15:34:23.326Z,6.55
2017-09-21T15:36:50.975Z,7.18
2017-09-21T15:39:18.608Z,6.20
2017-09-21T15:41:46.268Z,6.87
2017-09-21T15:44:14.704Z,7.25
2017-09-21T15:46:42.331Z,6.75
2017-09-21T15:49:09.983Z,7.43
2017-09-21T15:51:37.882Z,7.20
2017-09-21T15:54:05.770Z,6.43
2017-09-21T15:56:33.408Z,7.37
2017-09-21T15:59:01.085Z,8.65
2017-09-21T16:01:28.726Z,9.27
2017-09-21T16:03:56.411Z,9.80
2017-09-21T16:06:24.067Z,9.73
2017-09-21T16:08:51.728Z,9.80
2017-09-21T16:11:19.393Z,10.23
2017-09-21T16:13:47.090Z,9.98
2017-09-21T16:16:14.791Z,10.55
2017-09-21T16:18:42.451Z,9.85
2017-09-21T16:21:10.378Z,9.63
2017-09-21T16:23:38.066Z,10.85
2017-09-21T16:26:05.699Z,11.25
2017-09-21T16:28:33.342Z,11.48
2017-09-21T16:31:01.130Z,12.82
2017-09-21T16:33:28.823Z,12.18
2017-09-21T16:35:56.479Z,12.15
2017-09-21T16:38:24.176Z,13.77
2017-09-21T16:40:51.819Z,13.25
2017-09-21T16:43:19.495Z,15.18
2017-09-21T16:45:47.174Z,13.55
2017-09-21T16:48:15.094Z,14.20
2017-09-21T16:50:42.719Z,15.55
2017-09-21T16:53:10.471Z,16.73
2017-09-21T16:55:38.131Z,17.48
2017-09-21T16:58:05.783Z,17.50
2017-09-21T17:00:33.499Z,16.62
2017-09-21T17:03:01.277Z,17.02
2017-09-21T17:05:28.979Z,17.27
2017-09-21T17:07:56.663Z,16.10
2017-09-21T17:10:24.318Z,16.83
2017-09-21T17:12:51.956Z,15.80
2017-09-21T17:15:19.590Z,16.27
2017-09-21T17:17:47.258Z,17.15
2017-09-21T17:20:14.931Z,18.15
2017-09-21T17:22:42.577Z,17.77
2017-09-21T17:25:10.249Z,18.37
2017-09-21T17:27:37.901Z,18.70
2017-09-21T17:30:05.572Z,19.60
2017-09-21T17:32:33.235Z,20.40
2017-09-21T17:35:00.905Z,20.83
2017-09-21T17:37:28.576Z,20.00
2017-09-21T17:39:56.215Z,20.20
2017-09-21T17:42:23.852Z,21.70
2017-09-21T17:44:51.507Z,21.15
2017-09-21T17:47:19.124Z,22.40
2017-09-21T17:49:46.771Z,25.65
2017-09-21T17:52:14.416Z,23.90
2017-09-21T17:54:42.088Z,25.80
2017-09-21T17:57:09.721Z,26.80
2017-09-21T17:59:37.451Z,24.02
2017-09-21T18:02:05.164Z,25.52
2017-09-21T18:04:32.854Z,25.77
2017-09-21T18:07:02.346Z,25.88
2017-09-21T18:09:30.061Z,24.80
2017-09-21T18:11:57.690Z,25.77
2017-09-21T18:14:25.370Z,26.58
2017-09-21T18:16:53.035Z,29.05
2017-09-21T18:19:20.714Z,26.87
2017-09-21T18:21:49.154Z,26.30
2017-09-21T18:24:16.830Z,26.62
2017-09-21T18:26:44.491Z,26.48
2017-09-21T18:29:12.136Z,24.80
2017-09-21T18:31:39.804Z,25.75
2017-09-21T18:34:07.458Z,25.75
2017-09-21T18:36:35.095Z,24.55
2017-09-21T18:39:02.757Z,25.52
2017-09-21T18:41:30.408Z,26.20
2017-09-21T18:43:58.058Z,26.40
2017-09-21T18:46:25.777Z,27.02
2017-09-21T18:48:53.470Z,26.17
2017-09-21T18:51:21.182Z,25.33
2017-09-21T18:53:48.870Z,25.37
2017-09-21T18:56:16.563Z,25.65
2017-09-21T18:58:44.248Z,24.02
2017-09-21T19:01:11.915Z,24.70
2017-09-21T19:03:39.581Z,24.52
2017-09-21T19:06:07.242Z,26.12
2017-09-21T19:08:34.903Z,25.90
2017-09-21T19:11:02.572Z,24.77
2017-09-21T19:13:30.259Z,26.05
2017-09-21T19:15:57.918Z,24.27
2017-09-21T19:18:26.463Z,23.35
2017-09-21T19:20:54.135Z,23.48
2017-09-21T19:23:21.783Z,23.92
2017-09-21T19:25:49.411Z,25.65
2017-09-21T19:28:17.888Z,21.83
2017-09-21T19:30:45.559Z,22.73
2017-09-21T19:33:13.187Z,22.90
2017-09-21T19:35:40.830Z,22.80
2017-09-21T19:38:08.480Z,23.42
2017-09-21T19:40:36.115Z,23.65
2017-09-21T19:43:03.786Z,22.95
2017-09-21T19:45:32.451Z,22.70
2017-09-21T19:48:00.873Z,22.30
2017-09-21T19:50:28.561Z,20.48
2017-09-21T19:52:56.231Z,22.35
2017-09-21T19:55:23.882Z,22.67
2017-09-21T19:57:51.582Z,22.25
2017-09-21T20:00:19.235Z,22.52
2017-09-21T20:02:46.882Z,21.25
2017-09-21T20:05:14.548Z,21.27
2017-09-21T20:07:42.200Z,21.00
2017-09-21T20:10:09.926Z,21.42
2017-09-21T20:12:37.590Z,22.77
2017-09-21T20:15:07.242Z,21.20
2017-09-21T20:17:36.298Z,21.20
2017-09-21T20:20:04.007Z,22.27
2017-09-21T20:22:31.666Z,20.67
2017-09-21T20:24:59.365Z,22.52
2017-09-21T20:27:27.019Z,22.65
2017-09-21T20:29:54.708Z,21.37
2017-09-21T20:32:22.400Z,23.17
2017-09-21T20:34:50.067Z,22.15
2017-09-21T20:37:17.697Z,22.73
2017-09-21T20:39:45.326Z,22.60
2017-09-21T20:42:13.003Z,25.23
2017-09-21T20:44:40.660Z,23.35
2017-09-21T20:47:08.305Z,24.25
2017-09-21T20:49:35.958Z,24.33
2017-09-21T20:52:03.599Z,24.67
2017-09-21T20:54:31.224Z,26.00
2017-09-21T20:56:58.912Z,26.00
2017-09-21T20:59:26.539Z,25.17
2017-09-21T21:01:54.164Z,25.40
2017-09-21T21:04:21.788Z,25.83
2017-09-21T21:06:49.455Z,25.30
2017-09-21T21:09:17.103Z,25.12
2017-09-21T21:11:44.757Z,26.62
2017-09-21T21:14:12.427Z,26.92
2017-09-21T21:16:40.098Z,27.83
2017-09-21T21:19:07.755Z,27.35
2017-09-21T21:21:35.465Z,27.13
2017-09-21T21:24:03.131Z,29.20
2017-09-21T21:26:30.778Z,26.92
2017-09-21T21:28:58.431Z,31.55
2017-09-21T21:31:26.112Z,29.52
2017-09-21T21:33:53.787Z,30.27
2017-09-21T21:36:21.433Z,29.42
2017-09-21T21:38:49.098Z,30.37
2017-09-21T21:41:16.770Z,29.70
2017-09-21T21:43:44.423Z,31.15
2017-09-21T21:46:12.075Z,31.70
2017-09-21T21:48:39.714Z,31.25
2017-09-21T21:51:07.376Z,32.53
2017-09-21T21:53:35.027Z,31.60
2017-09-21T21:56:02.671Z,33.85
2017-09-21T21:58:31.099Z,35.38
2017-09-21T22:00:59.158Z,33.80
2017-09-21T22:03:27.211Z,33.63
2017-09-21T22:05:55.894Z,35.40
2017-09-21T22:08:24.096Z,35.97
2017-09-21T22:10:52.167Z,37.20
2017-09-21T22:13:20.064Z,35.35
2017-09-21T22:15:48.125Z,36.65
2017-09-21T22:18:16.385Z,35.45
2017-09-21T22:20:44.511Z,37.75
2017-09-21T22:23:12.570Z,37.40
2017-09-21T22:25:42.126Z,38.78
2017-09-21T22:28:10.823Z,39.70
2017-09-21T22:30:39.170Z,36.53
2017-09-21T22:33:07.482Z,35.70
2017-09-21T22:35:35.603Z,34.35
2017-09-21T22:38:04.648Z,35.38
2017-09-21T22:40:33.685Z,34.67
2017-09-21T22:43:01.702Z,35.33
2017-09-21T22:45:29.820Z,35.35
2017-09-21T22:47:59.279Z,36.42
2017-09-21T22:50:27.545Z,36.17
2017-09-21T22:52:56.514Z,32.97
2017-09-21T22:55:25.458Z,32.90
2017-09-21T22:57:53.750Z,32.97
2017-09-21T23:00:22.576Z,30.75
2017-09-21T23:02:50.880Z,33.58
2017-09-21T23:05:19.198Z,32.25
2017-09-21T23:07:48.066Z,31.45
2017-09-21T23:10:16.365Z,29.73
2017-09-21T23:12:44.774Z,29.55
2017-09-21T23:15:12.843Z,28.05
2017-09-21T23:17:41.035Z,30.45
2017-09-21T23:20:09.339Z,27.25
2017-09-21T23:22:37.806Z,29.37
2017-09-21T23:25:05.843Z,27.92
2017-09-21T23:27:34.053Z,28.15
2017-09-21T23:30:02.049Z,27.37
2017-09-21T23:32:30.301Z,28.92
2017-09-21T23:34:58.831Z,27.08
2017-09-21T23:37:27.761Z,28.75
2017-09-21T23:39:56.495Z,27.33
2017-09-21T23:42:25.314Z,29.55
2017-09-21T23:44:53.772Z,28.92
2017-09-21T23:47:22.058Z,28.60
2017-09-21T23:49:50.658Z,29.30
2017-09-21T23:52:19.454Z,27.17
2017-09-21T23:54:47.210Z,29.00
2017-09-21T23:57:15.153Z,30.20
2017-09-21T23:59:43.069Z,28.00
